Time;durP1;ratioP1;P1;durP2;ratioP2;P2;SDS_P1;SDS_P2;PMS_P1;PMS_P2;Temp;Humidity;BMP_temperature;BMP_pressure;BME280_temperature;BME280_humidity;BME280_pressure;Samples;Min_cycle;Max_cycle;Signal;HPM_P1;HPM_P2
2020/12/03 00:00:55;;;;;;;33.03;11.02;;;6.10;99.90;;;;;;5096413;28;20020;-73
2020/12/03 00:03:37;;;;;;;38.78;12.23;;;6.10;99.90;;;;;;5096835;28;20495;-73
2020/12/03 00:06:15;;;;;;;29.92;11.68;;;6.10;99.90;;;;;;5095852;28;20024;-73
2020/12/03 00:08:51;;;;;;;32.00;11.20;;;6.10;99.90;;;;;;5096530;28;20052;-73
2020/12/03 00:11:18;;;;;;;30.55;11.57;;;6.10;99.90;;;;;;5094925;28;20119;-73
2020/12/03 00:13:43;;;;;;;27.35;11.35;;;6.10;99.90;;;;;;5094932;28;20108;-73
2020/12/03 00:16:09;;;;;;;26.45;11.00;;;6.10;99.90;;;;;;5095659;28;20445;-73
2020/12/03 00:18:36;;;;;;;31.23;10.63;;;6.10;99.90;;;;;;5095671;28;20511;-73
2020/12/03 00:21:05;;;;;;;32.38;10.48;;;6.10;99.90;;;;;;5095961;28;20020;-73
2020/12/03 00:23:31;;;;;;;31.40;12.05;;;6.00;99.90;;;;;;5095878;28;20468;-73
2020/12/03 00:25:56;;;;;;;28.83;10.63;;;6.10;99.90;;;;;;5095399;28;20035;-73
2020/12/03 00:28:30;;;;;;;28.33;10.50;;;6.00;99.90;;;;;;5094841;28;20460;-73
2020/12/03 00:30:56;;;;;;;32.00;10.98;;;6.00;99.90;;;;;;5095606;28;20028;-73
2020/12/03 00:33:25;;;;;;;31.58;12.02;;;6.00;99.90;;;;;;5095305;28;20078;-73
2020/12/03 00:35:50;;;;;;;27.52;10.40;;;6.00;99.90;;;;;;5094132;28;20157;-73
2020/12/03 00:38:18;;;;;;;27.23;11.15;;;6.10;99.90;;;;;;5095205;28;20516;-73
2020/12/03 00:40:44;;;;;;;27.33;10.43;;;6.00;99.90;;;;;;5093779;28;20058;-73
2020/12/03 00:43:10;;;;;;;33.47;11.38;;;6.10;99.90;;;;;;5093818;28;20020;-73
2020/12/03 00:45:36;;;;;;;34.22;12.65;;;6.00;99.90;;;;;;5094989;28;20017;-73
2020/12/03 00:48:02;;;;;;;37.55;11.35;;;6.00;99.90;;;;;;5094936;28;20062;-73
2020/12/03 00:50:27;;;;;;;29.33;10.30;;;5.90;99.90;;;;;;5093609;28;20496;-73
2020/12/03 00:52:53;;;;;;;31.35;11.35;;;6.00;99.90;;;;;;5093913;28;20104;-73
2020/12/03 00:55:18;;;;;;;33.05;11.52;;;5.90;99.90;;;;;;5095151;28;20400;-73
2020/12/03 00:57:44;;;;;;;32.00;11.35;;;5.90;99.90;;;;;;5093392;28;20128;-73
2020/12/03 01:00:18;;;;;;;30.40;10.93;;;5.90;99.90;;;;;;5095066;28;20152;-73
2020/12/03 01:02:43;;;;;;;29.45;10.80;;;5.90;99.90;;;;;;5095301;28;20020;-73
2020/12/03 01:05:11;;;;;;;38.85;11.00;;;5.90;99.90;;;;;;5094307;28;20054;-74
2020/12/03 01:07:36;;;;;;;39.72;11.40;;;5.90;99.90;;;;;;5094885;28;20050;-74
2020/12/03 01:10:04;;;;;;;34.47;10.95;;;5.90;99.90;;;;;;5094868;28;20020;-74
2020/12/03 01:12:30;;;;;;;30.55;9.57;;;5.90;99.90;;;;;;5093396;28;20016;-74
2020/12/03 01:14:56;;;;;;;31.58;10.75;;;5.90;99.90;;;;;;5094530;28;20019;-74
2020/12/03 01:17:21;;;;;;;22.67;8.48;;;5.70;99.90;;;;;;5094396;28;20020;-73
2020/12/03 01:19:50;;;;;;;26.25;8.52;;;5.80;99.90;;;;;;5094266;28;20068;-73
2020/12/03 01:22:15;;;;;;;32.67;10.27;;;5.80;99.90;;;;;;5094698;28;20073;-73
2020/12/03 01:24:41;;;;;;;27.83;9.55;;;5.80;99.90;;;;;;5094928;28;20476;-73
2020/12/03 01:27:09;;;;;;;29.00;8.52;;;5.80;99.90;;;;;;5093416;28;20016;-74
2020/12/03 01:29:34;;;;;;;31.02;9.55;;;5.80;99.90;;;;;;5094476;28;20036;-73
2020/12/03 01:32:00;;;;;;;24.50;8.55;;;5.80;99.90;;;;;;5094600;28;20108;-73
2020/12/03 01:34:25;;;;;;;25.65;8.73;;;5.80;99.90;;;;;;5092935;28;20124;-73
2020/12/03 01:36:52;;;;;;;22.50;8.02;;;5.90;99.90;;;;;;5093022;28;20536;-73
2020/12/03 01:39:18;;;;;;;30.20;8.73;;;5.80;99.90;;;;;;5094120;28;20032;-73
2020/12/03 01:41:45;;;;;;;26.13;8.13;;;5.80;99.90;;;;;;5093093;28;20376;-73
2020/12/03 01:44:10;;;;;;;24.65;8.00;;;5.80;99.90;;;;;;5094352;28;20028;-73
2020/12/03 01:46:37;;;;;;;23.35;7.88;;;5.80;99.90;;;;;;5094030;28;20016;-73
2020/12/03 01:49:21;;;;;;;21.52;8.40;;;5.80;99.90;;;;;;5094092;28;20020;-73
2020/12/03 01:51:51;;;;;;;24.60;7.10;;;5.80;99.90;;;;;;5094075;28;20028;-73
2020/12/03 01:54:20;;;;;;;20.75;6.57;;;5.80;99.90;;;;;;5094907;28;20039;-73
2020/12/03 01:57:03;;;;;;;25.02;7.13;;;5.80;99.90;;;;;;5094627;28;20028;-73
2020/12/03 01:59:41;;;;;;;19.92;6.50;;;5.90;99.90;;;;;;5094669;28;20414;-73
2020/12/03 02:02:09;;;;;;;28.95;7.40;;;5.90;99.90;;;;;;5093640;28;20029;-73
2020/12/03 02:04:35;;;;;;;17.27;5.93;;;5.90;99.90;;;;;;5093005;28;20558;-73
2020/12/03 02:07:10;;;;;;;21.20;6.63;;;5.90;99.90;;;;;;5092714;28;20032;-73
2020/12/03 02:09:36;;;;;;;19.10;5.57;;;5.90;99.90;;;;;;5094337;28;20504;-73
2020/12/03 02:12:02;;;;;;;24.98;8.13;;;5.90;99.90;;;;;;5094052;28;20066;-73
2020/12/03 02:14:28;;;;;;;23.38;6.90;;;5.90;99.90;;;;;;5094653;28;20418;-73
2020/12/03 02:16:54;;;;;;;14.70;5.07;;;5.90;99.90;;;;;;5093959;28;20027;-73
2020/12/03 02:19:27;;;;;;;18.33;5.38;;;5.90;99.90;;;;;;5094135;28;20020;-73
2020/12/03 02:21:59;;;;;;;21.17;4.82;;;7.70;99.90;;;;;;5093903;28;20046;-73
2020/12/03 02:24:43;;;;;;;15.38;4.97;;;5.90;99.90;;;;;;5092530;28;20016;-73
2020/12/03 02:27:12;;;;;;;21.27;5.72;;;5.90;99.90;;;;;;5093711;28;20099;-73
2020/12/03 02:29:38;;;;;;;19.90;5.72;;;5.90;99.90;;;;;;5093679;28;20035;-73
2020/12/03 02:32:04;;;;;;;15.20;4.82;;;5.90;99.90;;;;;;5092765;28;20032;-74
2020/12/03 02:34:30;;;;;;;16.35;4.95;;;5.90;99.90;;;;;;5092475;28;20020;-73
2020/12/03 02:36:58;;;;;;;14.85;5.57;;;5.90;99.90;;;;;;5094194;28;20107;-74
2020/12/03 02:39:25;;;;;;;19.92;6.40;;;5.90;99.90;;;;;;5093483;28;20078;-73
2020/12/03 02:41:51;;;;;;;15.88;5.68;;;5.90;99.90;;;;;;5093581;28;20016;-74
2020/12/03 02:44:18;;;;;;;17.52;5.10;;;5.90;99.90;;;;;;5093736;28;20020;-73
2020/12/03 02:46:43;;;;;;;13.38;4.63;;;5.90;99.90;;;;;;5093304;28;20066;-73
2020/12/03 02:49:10;;;;;;;17.40;5.40;;;5.80;99.90;;;;;;5093597;28;20032;-73
2020/12/03 02:51:36;;;;;;;13.90;4.93;;;5.80;99.90;;;;;;5092365;28;20025;-73
2020/12/03 02:54:02;;;;;;;15.38;4.70;;;5.90;99.90;;;;;;5093204;28;20032;-73
2020/12/03 02:56:27;;;;;;;21.25;5.22;;;5.90;99.90;;;;;;5093235;28;20035;-74
2020/12/03 02:58:53;;;;;;;16.08;4.25;;;5.90;99.90;;;;;;5093520;28;20078;-73
2020/12/03 03:01:19;;;;;;;12.30;3.63;;;5.90;99.90;;;;;;5093697;28;20106;-74
2020/12/03 03:03:44;;;;;;;19.20;6.18;;;5.90;99.90;;;;;;5093330;28;20051;-74
2020/12/03 03:06:13;;;;;;;20.75;4.82;;;5.90;99.90;;;;;;5092971;28;20032;-74
2020/12/03 03:08:39;;;;;;;16.52;4.45;;;5.90;99.90;;;;;;5091819;28;20020;-74
2020/12/03 03:11:05;;;;;;;14.68;3.90;;;5.90;99.90;;;;;;5093483;28;20020;-74
2020/12/03 03:13:30;;;;;;;12.43;3.95;;;5.90;99.90;;;;;;5095812;28;20016;-73
2020/12/03 03:15:56;;;;;;;18.17;4.40;;;5.90;99.90;;;;;;5097395;28;20025;-74
2020/12/03 03:18:22;;;;;;;14.75;3.70;;;5.90;99.90;;;;;;5096931;28;20028;-74
2020/12/03 03:20:48;;;;;;;21.05;5.10;;;5.90;99.90;;;;;;5096805;28;20086;-74
2020/12/03 03:23:15;;;;;;;15.60;4.45;;;5.90;99.90;;;;;;5097076;28;20541;-74
2020/12/03 03:25:41;;;;;;;19.85;3.92;;;5.80;99.90;;;;;;5096669;28;20020;-74
2020/12/03 03:28:07;;;;;;;10.65;3.80;;;5.90;99.90;;;;;;5095087;28;20434;-74
2020/12/03 03:30:32;;;;;;;12.05;3.95;;;5.90;99.90;;;;;;5096556;28;20076;-74
2020/12/03 03:32:58;;;;;;;10.70;3.60;;;5.90;99.90;;;;;;5096405;28;20388;-74
2020/12/03 03:35:23;;;;;;;18.67;3.80;;;5.90;99.90;;;;;;5095055;28;20028;-73
2020/12/03 03:37:49;;;;;;;14.38;3.53;;;5.90;99.90;;;;;;5094750;28;20031;-73
2020/12/03 03:40:15;;;;;;;18.10;3.63;;;5.90;99.90;;;;;;5096364;28;20095;-74
2020/12/03 03:42:41;;;;;;;12.25;3.30;;;5.90;99.90;;;;;;5096324;28;20081;-74
2020/12/03 03:45:09;;;;;;;16.38;3.97;;;5.90;99.90;;;;;;5096342;28;20396;-74
2020/12/03 03:47:34;;;;;;;11.10;4.30;;;5.90;99.90;;;;;;5094710;28;20108;-74
2020/12/03 03:50:00;;;;;;;20.20;5.10;;;5.90;99.90;;;;;;5094818;28;20064;-74
2020/12/03 03:52:25;;;;;;;18.38;3.60;;;5.90;99.90;;;;;;5094949;28;20020;-74
2020/12/03 03:54:51;;;;;;;15.80;3.78;;;5.80;99.90;;;;;;5096155;28;20024;-74
2020/12/03 03:57:17;;;;;;;13.48;3.83;;;5.90;99.90;;;;;;5096308;28;20016;-74
2020/12/03 03:59:43;;;;;;;7.05;3.10;;;5.90;99.90;;;;;;5095614;28;20433;-74
2020/12/03 04:02:13;;;;;;;19.02;4.57;;;5.90;99.90;;;;;;5096176;28;20020;-74
2020/12/03 04:04:39;;;;;;;14.10;4.35;;;5.90;99.90;;;;;;5096189;28;20024;-74
2020/12/03 04:07:04;;;;;;;15.02;3.60;;;5.90;99.90;;;;;;5095868;28;20020;-73
2020/12/03 04:09:30;;;;;;;14.00;4.47;;;5.90;99.90;;;;;;5095879;28;20028;-73
2020/12/03 04:11:55;;;;;;;16.40;3.45;;;5.90;99.90;;;;;;5094432;28;20389;-74
2020/12/03 04:14:21;;;;;;;13.93;4.78;;;5.90;99.90;;;;;;5095869;28;20020;-74
2020/12/03 04:16:46;;;;;;;10.05;4.40;;;5.90;99.90;;;;;;5094244;28;20020;-74
2020/12/03 04:19:12;;;;;;;15.20;4.65;;;5.90;99.90;;;;;;5095549;28;20035;-73
2020/12/03 04:21:37;;;;;;;16.63;4.22;;;5.90;99.90;;;;;;5095825;28;20507;-73
2020/12/03 04:24:03;;;;;;;17.08;4.32;;;5.90;99.90;;;;;;5093666;28;20012;-73
2020/12/03 04:26:29;;;;;;;18.50;5.32;;;5.90;99.90;;;;;;5095384;28;20020;-73
2020/12/03 04:28:54;;;;;;;13.52;4.53;;;5.90;99.90;;;;;;5096102;28;20032;-74
2020/12/03 04:31:20;;;;;;;18.88;4.22;;;5.80;99.90;;;;;;5095819;28;20052;-74
2020/12/03 04:33:45;;;;;;;13.63;4.38;;;5.90;99.90;;;;;;5096035;28;20095;-74
2020/12/03 04:36:11;;;;;;;16.85;4.38;;;5.90;99.90;;;;;;5095258;28;20017;-73
2020/12/03 04:38:37;;;;;;;16.75;4.97;;;5.90;99.90;;;;;;5095193;28;20100;-73
2020/12/03 04:41:03;;;;;;;17.08;5.50;;;5.90;99.90;;;;;;5094706;28;20020;-73
2020/12/03 04:43:50;;;;;;;16.13;4.47;;;6.00;99.90;;;;;;5095653;28;20077;-74
2020/12/03 04:46:43;;;;;;;11.82;4.90;;;6.00;99.90;;;;;;5095721;28;20016;-74
2020/12/03 04:49:23;;;;;;;16.70;4.97;;;6.00;99.90;;;;;;5094601;28;20493;-73
2020/12/03 04:52:05;;;;;;;30.50;7.97;;;6.00;99.90;;;;;;5094615;28;20052;-73
2020/12/03 04:54:45;;;;;;;20.27;6.03;;;6.00;99.90;;;;;;5095654;28;20024;-73
2020/12/03 04:57:36;;;;;;;18.95;6.13;;;6.00;99.90;;;;;;5095086;28;20062;-74
2020/12/03 05:00:31;;;;;;;15.45;5.65;;;6.00;99.90;;;;;;5094488;28;20376;-74
2020/12/03 05:03:26;;;;;;;19.65;6.05;;;6.00;99.90;;;;;;5094760;28;20024;-74
2020/12/03 05:05:55;;;;;;;13.27;6.15;;;6.00;99.90;;;;;;5069738;28;20117;-74
2020/12/03 05:08:31;;;;;;;15.23;6.85;;;6.00;99.90;;;;;;5094706;28;20545;-74
2020/12/03 05:10:56;;;;;;;19.65;6.78;;;6.00;99.90;;;;;;5093145;28;20028;-74
2020/12/03 05:13:28;;;;;;;19.67;7.30;;;6.00;99.90;;;;;;5094422;28;20050;-74
2020/12/03 05:16:31;;;;;;;22.85;7.68;;;6.10;99.90;;;;;;5094480;28;20081;-73
2020/12/03 05:19:22;;;;;;;20.02;8.15;;;6.10;99.90;;;;;;5094516;28;20123;-73
2020/12/03 05:21:49;;;;;;;16.13;7.13;;;6.10;99.90;;;;;;5093270;28;20039;-74
2020/12/03 05:24:15;;;;;;;18.75;7.13;;;6.10;99.90;;;;;;5094317;28;20031;-74
2020/12/03 05:26:40;;;;;;;21.58;7.63;;;6.10;99.90;;;;;;5093190;28;20020;-74
2020/12/03 05:29:08;;;;;;;26.85;8.40;;;6.10;99.90;;;;;;5092937;28;20031;-74
2020/12/03 05:31:37;;;;;;;24.38;7.32;;;6.10;99.90;;;;;;5092990;28;20497;-74
2020/12/03 05:34:17;;;;;;;25.13;8.95;;;6.10;99.90;;;;;;5093090;28;20480;-73
2020/12/03 05:36:55;;;;;;;21.88;8.85;;;6.10;99.90;;;;;;5093672;28;20024;-73
2020/12/03 05:39:31;;;;;;;20.85;7.65;;;6.10;99.90;;;;;;5094498;28;20024;-73
2020/12/03 05:42:01;;;;;;;21.23;8.75;;;6.00;99.90;;;;;;5093153;28;20035;-74
2020/12/03 05:44:30;;;;;;;21.60;8.55;;;6.10;99.90;;;;;;5093067;28;20106;-73
2020/12/03 05:46:56;;;;;;;24.33;8.85;;;6.10;99.90;;;;;;5093888;28;20020;-73
2020/12/03 05:49:26;;;;;;;21.15;9.73;;;6.00;99.90;;;;;;5093907;28;20068;-74
2020/12/03 05:52:13;;;;;;;20.27;9.10;;;6.00;99.90;;;;;;5092609;28;20027;-74
2020/12/03 05:54:39;;;;;;;26.00;10.23;;;6.00;99.90;;;;;;5092691;28;20085;-73
2020/12/03 05:57:04;;;;;;;25.55;8.25;;;6.00;99.90;;;;;;5093937;28;20028;-73
2020/12/03 05:59:30;;;;;;;24.55;8.50;;;5.90;99.90;;;;;;5093918;28;20028;-73
2020/12/03 06:02:07;;;;;;;26.23;8.50;;;6.00;99.90;;;;;;5092459;28;20114;-73
2020/12/03 06:04:40;;;;;;;21.02;8.48;;;6.00;99.90;;;;;;5092505;28;20030;-73
2020/12/03 06:07:38;;;;;;;23.73;10.15;;;6.00;99.90;;;;;;5093775;28;20028;-74
2020/12/03 06:10:16;;;;;;;22.13;8.77;;;6.00;99.90;;;;;;5092632;28;20027;-74
2020/12/03 06:12:51;;;;;;;23.77;8.90;;;6.00;99.90;;;;;;5092450;28;20020;-74
2020/12/03 06:15:37;;;;;;;22.65;10.20;;;6.00;99.90;;;;;;5092425;28;20493;-74
2020/12/03 06:18:24;;;;;;;30.63;10.68;;;6.00;99.90;;;;;;5092181;28;20067;-73
2020/12/03 06:21:24;;;;;;;23.58;9.15;;;6.00;99.90;;;;;;5092521;28;20031;-73
2020/12/03 06:23:58;;;;;;;24.02;8.57;;;6.00;99.90;;;;;;5093692;28;20103;-73
2020/12/03 06:26:29;;;;;;;24.70;10.27;;;6.00;99.90;;;;;;5092461;28;20024;-73
2020/12/03 06:29:43;;;;;;;28.65;9.70;;;6.00;99.90;;;;;;5093825;28;20016;-73
2020/12/03 06:32:44;;;;;;;33.38;10.02;;;6.00;99.90;;;;;;5079255;28;20093;-73
2020/12/03 06:35:21;;;;;;;25.38;11.05;;;6.00;99.90;;;;;;5061995;28;20382;-74
2020/12/03 06:38:25;;;;;;;27.73;11.55;;;6.00;99.90;;;;;;5093324;28;20438;-73
2020/12/03 06:41:28;;;;;;;27.15;11.00;;;6.00;99.90;;;;;;5084425;28;20489;-73
2020/12/03 06:44:07;;;;;;;32.50;10.68;;;6.00;99.90;;;;;;5093404;28;20380;-73
2020/12/03 06:46:45;;;;;;;29.98;11.05;;;6.00;99.90;;;;;;5093485;28;20354;-76
2020/12/03 06:49:36;;;;;;;35.97;12.15;;;6.00;99.90;;;;;;5095668;28;20024;-76
2020/12/03 06:52:48;;;;;;;39.50;14.07;;;6.00;99.90;;;;;;5097304;28;20059;-74
2020/12/03 06:55:49;;;;;;;36.88;13.70;;;6.00;99.90;;;;;;5097727;28;20408;-74
2020/12/03 06:58:55;;;;;;;29.08;12.80;;;6.00;99.90;;;;;;5095743;28;20027;-73
2020/12/03 07:01:33;;;;;;;30.30;12.68;;;6.10;99.90;;;;;;5096296;28;20036;-74
2020/12/03 07:04:25;;;;;;;33.72;14.57;;;6.10;99.90;;;;;;5097770;28;20022;-74
2020/12/03 07:06:59;;;;;;;37.72;13.90;;;6.10;99.90;;;;;;5094181;28;20412;-74
2020/12/03 07:09:47;;;;;;;36.90;14.73;;;6.10;99.90;;;;;;5097736;28;20066;-75
2020/12/03 07:12:48;;;;;;;36.03;13.20;;;6.10;99.90;;;;;;5095763;28;20435;-74
2020/12/03 07:15:51;;;;;;;29.75;13.35;;;6.20;99.90;;;;;;5095736;28;20042;-74
2020/12/03 07:18:53;;;;;;;36.75;12.68;;;6.20;99.90;;;;;;5097007;28;20115;-75
2020/12/03 07:21:30;;;;;;;39.50;14.45;;;6.20;99.90;;;;;;5097107;28;20389;-74
2020/12/03 07:24:13;;;;;;;38.35;15.10;;;6.20;99.90;;;;;;5097114;28;20476;-74
2020/12/03 07:27:07;;;;;;;37.05;15.52;;;6.20;99.90;;;;;;5095236;28;20078;-74
2020/12/03 07:29:55;;;;;;;36.55;13.32;;;6.30;99.90;;;;;;5070119;28;20036;-74
2020/12/03 07:32:50;;;;;;;38.47;13.88;;;6.20;99.90;;;;;;5096847;28;20021;-74
2020/12/03 07:35:37;;;;;;;37.65;14.68;;;6.30;99.90;;;;;;5070382;28;20036;-74
2020/12/03 07:38:33;;;;;;;37.15;14.63;;;6.30;99.90;;;;;;5095989;28;20024;-74
2020/12/03 07:40:59;;;;;;;42.63;15.02;;;6.30;99.90;;;;;;5095571;28;20028;-74
2020/12/03 07:43:33;;;;;;;45.95;16.92;;;6.30;99.90;;;;;;5095332;28;20020;-74
2020/12/03 07:46:00;;;;;;;36.55;14.95;;;6.30;99.90;;;;;;5095093;28;20020;-74
2020/12/03 07:48:31;;;;;;;35.45;14.65;;;6.30;99.90;;;;;;5094959;28;20077;-74
2020/12/03 07:51:08;;;;;;;50.80;16.35;;;6.30;99.90;;;;;;5096232;28;20028;-74
2020/12/03 07:53:35;;;;;;;41.75;14.77;;;6.30;99.90;;;;;;5096617;28;20468;-74
2020/12/03 07:56:26;;;;;;;40.85;15.40;;;6.30;99.90;;;;;;5095984;28;20073;-74
2020/12/03 07:58:52;;;;;;;46.13;16.20;;;6.30;99.90;;;;;;5095205;28;20477;-74
2020/12/03 08:01:26;;;;;;;38.88;14.75;;;6.30;99.90;;;;;;5094676;28;20121;-74
2020/12/03 08:04:12;;;;;;;40.80;17.13;;;6.30;99.90;;;;;;5094904;28;20032;-74
2020/12/03 08:06:41;;;;;;;34.20;14.80;;;6.30;99.90;;;;;;5093645;28;20032;-74
2020/12/03 08:09:06;;;;;;;;;;;6.30;99.90;;;;;;5096259;28;20426;-74
2020/12/03 08:12:03;;;;;;;53.40;16.23;;;6.30;99.90;;;;;;5094825;28;19911;-74
2020/12/03 08:14:55;;;;;;;42.03;14.80;;;6.30;99.90;;;;;;5083425;28;20118;-74
2020/12/03 08:17:21;;;;;;;41.55;15.10;;;6.40;99.90;;;;;;5092754;28;20045;-74
2020/12/03 08:20:00;;;;;;;44.53;16.27;;;6.30;99.90;;;;;;5095861;28;20020;-74
2020/12/03 08:22:48;;;;;;;42.00;14.30;;;6.40;99.90;;;;;;5095777;28;20024;-74
2020/12/03 08:25:31;;;;;;;44.90;16.67;;;6.40;99.90;;;;;;5095432;28;20039;-74
2020/12/03 08:28:04;;;;;;;44.50;16.10;;;6.30;99.90;;;;;;5095281;28;20059;-74
2020/12/03 08:30:36;;;;;;;41.15;15.05;;;6.40;99.90;;;;;;5094051;28;20016;-74
2020/12/03 08:33:12;;;;;;;40.28;14.00;;;6.30;99.90;;;;;;5094129;28;20027;-74
2020/12/03 08:35:40;;;;;;;39.88;13.93;;;6.30;99.90;;;;;;5095912;28;20132;-74
2020/12/03 08:38:06;;;;;;;44.42;15.68;;;6.30;99.90;;;;;;5095119;28;20031;-74
2020/12/03 08:40:35;;;;;;;37.92;13.88;;;6.20;99.90;;;;;;5095383;28;20070;-74
2020/12/03 08:43:02;;;;;;;;;;;6.20;99.90;;;;;;5096813;28;20038;-74
2020/12/03 08:45:31;;;;;;;36.75;12.27;;;6.30;99.90;;;;;;5094035;28;20368;-74
2020/12/03 08:47:58;;;;;;;37.35;13.32;;;6.20;99.90;;;;;;5095173;28;20046;-74
2020/12/03 08:50:23;;;;;;;41.30;14.07;;;6.30;99.90;;;;;;5095436;28;20020;-74
2020/12/03 08:52:49;;;;;;;33.10;13.25;;;6.20;99.90;;;;;;5095439;28;20018;-74
2020/12/03 08:55:17;;;;;;;29.45;12.18;;;6.20;99.90;;;;;;5094335;28;20020;-74
2020/12/03 08:57:45;;;;;;;34.70;13.77;;;6.20;99.90;;;;;;5094270;28;20024;-74
2020/12/03 09:00:16;;;;;;;29.15;11.70;;;6.20;99.90;;;;;;5095794;28;20059;-74
2020/12/03 09:02:42;;;;;;;33.60;12.13;;;6.30;99.90;;;;;;5095119;28;20107;-74
2020/12/03 09:05:09;;;;;;;31.65;12.85;;;6.30;99.90;;;;;;5135277;22;20031;-74
2020/12/03 09:07:47;;;;;;;29.80;12.55;;;6.30;99.90;;;;;;5074453;28;20103;-74
2020/12/03 09:10:13;;;;;;;30.83;11.23;;;6.30;99.90;;;;;;5056830;28;20027;-74
2020/12/03 09:12:46;;;;;;;32.47;12.15;;;6.30;99.90;;;;;;5074711;28;20088;-74
2020/12/03 09:15:17;;;;;;;37.25;12.98;;;6.20;99.90;;;;;;5056975;28;20443;-74
2020/12/03 09:17:49;;;;;;;31.63;11.50;;;6.20;99.90;;;;;;5057088;28;20020;-73
2020/12/03 09:20:14;;;;;;;26.73;10.05;;;6.20;99.90;;;;;;5056888;28;20024;-74
2020/12/03 09:22:41;;;;;;;27.42;10.35;;;6.30;99.90;;;;;;5075661;28;20012;-75
2020/12/03 09:25:09;;;;;;;24.20;10.38;;;6.30;99.90;;;;;;5074656;28;20036;-74
2020/12/03 09:27:39;;;;;;;22.52;9.25;;;6.30;99.90;;;;;;5074405;28;20032;-74
2020/12/03 09:30:10;;;;;;;26.42;10.65;;;6.30;99.90;;;;;;5075111;28;20024;-74
2020/12/03 09:32:39;;;;;;;21.90;8.52;;;6.30;99.90;;;;;;5074406;28;20105;-74
2020/12/03 09:35:06;;;;;;;21.85;8.05;;;6.30;99.90;;;;;;5056523;28;20020;-74
2020/12/03 09:37:32;;;;;;;25.88;10.07;;;6.30;99.90;;;;;;5074345;28;20029;-74
2020/12/03 09:40:00;;;;;;;18.73;8.15;;;6.30;99.90;;;;;;5056420;28;20032;-74
2020/12/03 09:42:27;;;;;;;25.50;9.57;;;6.30;99.90;;;;;;5074286;28;20452;-74
2020/12/03 09:44:57;;;;;;;22.05;8.20;;;6.30;99.90;;;;;;5073890;28;20358;-74
2020/12/03 09:47:28;;;;;;;18.73;8.10;;;6.30;99.90;;;;;;5074637;28;20418;-74
2020/12/03 09:49:54;;;;;;;14.75;6.55;;;6.40;99.90;;;;;;5055895;28;20059;-74
2020/12/03 09:52:22;;;;;;;16.83;8.02;;;6.40;99.90;;;;;;5055774;28;20396;-74
2020/12/03 09:54:47;;;;;;;17.10;6.95;;;6.40;99.90;;;;;;5073837;28;20492;-74
2020/12/03 09:57:13;;;;;;;20.00;7.57;;;6.40;99.90;;;;;;5073874;28;20033;-74
2020/12/03 09:59:39;;;;;;;14.30;6.32;;;6.40;99.90;;;;;;5073917;28;20017;-74
2020/12/03 10:02:08;;;;;;;15.90;7.05;;;6.40;99.90;;;;;;5055705;28;20021;-74
2020/12/03 10:04:39;;;;;;;17.80;7.10;;;6.50;99.90;;;;;;5073881;28;20016;-74
2020/12/03 10:07:14;;;;;;;16.35;7.65;;;6.50;99.90;;;;;;5055658;28;20039;-74
2020/12/03 10:10:03;;;;;;;19.88;8.13;;;6.40;99.90;;;;;;5074355;28;20029;-74
2020/12/03 10:12:47;;;;;;;20.10;9.48;;;6.40;99.90;;;;;;5074270;28;20082;-74
2020/12/03 10:15:50;;;;;;;21.33;8.75;;;6.40;99.90;;;;;;5074388;28;20024;-74
2020/12/03 10:18:21;;;;;;;26.33;9.07;;;6.30;99.90;;;;;;5055357;28;20059;-74
2020/12/03 10:20:49;;;;;;;22.27;10.23;;;6.40;99.90;;;;;;5055778;28;20023;-74
2020/12/03 10:23:37;;;;;;;23.85;9.90;;;6.40;99.90;;;;;;5075677;28;20017;-74
2020/12/03 10:26:14;;;;;;;22.63;9.35;;;6.40;99.90;;;;;;5077007;28;20039;-74
2020/12/03 10:28:44;;;;;;;26.90;9.82;;;6.40;99.90;;;;;;5059623;28;20028;-74
2020/12/03 10:31:11;;;;;;;24.80;10.05;;;6.40;99.90;;;;;;5058781;28;20410;-74
2020/12/03 10:33:38;;;;;;;23.90;10.48;;;6.40;99.90;;;;;;5076547;28;20055;-74
2020/12/03 10:36:11;;;;;;;25.60;9.50;;;6.60;99.90;;;;;;5058637;28;20036;-74
2020/12/03 10:38:42;;;;;;;26.90;11.25;;;6.40;99.90;;;;;;5076811;28;20533;-74
2020/12/03 10:41:09;;;;;;;23.40;10.25;;;6.40;99.90;;;;;;5077535;28;20484;-74
2020/12/03 10:43:35;;;;;;;23.05;10.15;;;6.40;99.90;;;;;;5059210;28;20024;-74
2020/12/03 10:46:06;;;;;;;23.25;9.40;;;6.50;99.90;;;;;;5077113;28;20032;-74
2020/12/03 10:48:35;;;;;;;24.60;10.00;;;6.50;99.90;;;;;;5078113;28;20043;-74
2020/12/03 10:51:07;;;;;;;22.17;8.82;;;6.50;99.90;;;;;;5076943;28;20541;-74
2020/12/03 10:53:33;;;;;;;21.20;8.93;;;6.40;99.90;;;;;;5059417;28;20028;-74
2020/12/03 10:56:04;;;;;;;21.58;9.80;;;6.40;99.90;;;;;;5059126;28;20028;-74
2020/12/03 10:58:38;;;;;;;25.42;9.93;;;6.40;99.90;;;;;;5077025;28;20098;-74
2020/12/03 11:01:11;;;;;;;24.00;9.85;;;6.50;99.90;;;;;;5077525;28;20100;-74
2020/12/03 11:03:38;;;;;;;23.60;9.15;;;7.00;99.90;;;;;;5077022;28;20052;-74
2020/12/03 11:06:06;;;;;;;24.45;9.98;;;6.50;99.90;;;;;;5077051;28;20082;-74
2020/12/03 11:08:37;;;;;;;32.30;10.55;;;6.50;99.90;;;;;;5058618;28;20021;-74
2020/12/03 11:11:04;;;;;;;18.77;8.82;;;6.60;99.90;;;;;;5058807;28;20025;-74
2020/12/03 11:13:30;;;;;;;21.70;9.98;;;6.60;99.90;;;;;;5077041;28;20437;-74
2020/12/03 11:15:58;;;;;;;22.33;10.02;;;6.60;99.90;;;;;;5058781;28;20025;-74
2020/12/03 11:18:26;;;;;;;22.30;9.93;;;6.60;99.90;;;;;;5076664;28;20024;-74
2020/12/03 11:21:02;;;;;;;19.10;8.23;;;6.60;99.90;;;;;;5076526;28;20074;-74
2020/12/03 11:23:29;;;;;;;18.42;9.07;;;6.60;99.90;;;;;;5058593;28;20028;-74
2020/12/03 11:26:06;;;;;;;23.55;9.60;;;6.70;99.90;;;;;;5077004;28;20377;-74
2020/12/03 11:28:37;;;;;;;21.30;9.55;;;6.60;99.90;;;;;;5076428;28;20024;-74
2020/12/03 11:31:08;;;;;;;21.63;8.93;;;6.60;99.90;;;;;;5076536;28;20020;-74
2020/12/03 11:33:40;;;;;;;19.42;8.85;;;6.70;99.90;;;;;;5076292;28;20032;-74
2020/12/03 11:36:15;;;;;;;17.63;9.20;;;6.70;99.90;;;;;;5076737;28;20461;-74
2020/12/03 11:38:49;;;;;;;20.52;8.48;;;6.60;99.90;;;;;;5058455;28;20020;-74
2020/12/03 11:41:22;;;;;;;21.73;9.23;;;6.70;99.90;;;;;;5076422;28;20381;-74
2020/12/03 11:47:26;;;;;;;21.10;8.85;;;6.70;99.90;;;;;;5077005;28;20055;-74
2020/12/03 11:49:44;;;;;;;23.13;9.43;;;6.70;99.90;;;;;;5076053;28;20029;-74
2020/12/03 11:52:12;;;;;;;25.42;9.50;;;6.70;99.90;;;;;;5075963;28;20436;-74
2020/12/03 11:54:38;;;;;;;22.88;9.85;;;6.70;99.90;;;;;;5076291;28;20397;-74
2020/12/03 11:57:04;;;;;;;21.98;9.35;;;6.70;99.90;;;;;;5076763;28;20035;-74
2020/12/03 11:59:35;;;;;;;20.67;9.55;;;6.70;99.90;;;;;;5057813;28;20025;-74
2020/12/03 12:02:05;;;;;;;23.67;9.80;;;6.70;99.90;;;;;;5058085;28;20021;-74
2020/12/03 12:07:58;;;;;;;21.67;9.48;;;6.60;99.90;;;;;;5075502;28;20037;-74
2020/12/03 12:10:25;;;;;;;24.70;9.80;;;6.60;99.90;;;;;;5067643;28;20035;-74
2020/12/03 12:12:50;;;;;;;18.92;9.70;;;6.60;99.90;;;;;;5057935;28;20017;-74
2020/12/03 12:15:16;;;;;;;23.77;9.43;;;6.60;99.90;;;;;;5057531;28;20021;-74
2020/12/03 12:17:42;;;;;;;24.05;9.45;;;6.60;99.90;;;;;;5057446;28;20115;-74
2020/12/03 12:20:10;;;;;;;23.13;10.50;;;6.60;99.90;;;;;;5075504;28;20024;-74
2020/12/03 12:22:36;;;;;;;20.13;9.03;;;6.60;99.90;;;;;;5075454;28;20474;-74
2020/12/03 12:25:01;;;;;;;20.85;8.57;;;6.70;99.90;;;;;;5057380;28;20025;-74
2020/12/03 12:27:27;;;;;;;18.55;9.20;;;6.70;99.90;;;;;;5057442;28;20020;-74
2020/12/03 12:29:53;;;;;;;20.60;8.00;;;8.40;99.90;;;;;;5075557;28;20024;-74
2020/12/03 12:32:19;;;;;;;19.45;8.05;;;6.70;99.90;;;;;;5057331;28;20094;-74
2020/12/03 12:34:45;;;;;;;20.25;7.95;;;6.70;99.90;;;;;;5075262;28;20028;-75
2020/12/03 12:37:13;;;;;;;22.48;8.90;;;6.70;99.90;;;;;;5075693;28;20652;-75
2020/12/03 12:39:39;;;;;;;19.30;8.55;;;6.70;99.90;;;;;;5075332;28;20051;-74
2020/12/03 12:42:06;;;;;;;16.38;7.10;;;6.70;99.90;;;;;;5057278;28;20587;-74
2020/12/03 12:44:32;;;;;;;16.92;7.65;;;6.70;99.90;;;;;;5075030;28;20054;-74
2020/12/03 12:46:59;;;;;;;18.95;7.22;;;6.80;99.90;;;;;;5056431;28;20040;-74
2020/12/03 12:49:28;;;;;;;18.98;7.93;;;6.80;99.90;;;;;;5074781;28;20031;-74
2020/12/03 12:51:56;;;;;;;16.02;7.07;;;6.80;99.90;;;;;;5074842;28;20099;-74
2020/12/03 12:54:24;;;;;;;17.02;7.60;;;6.80;99.90;;;;;;5074663;28;20491;-74
2020/12/03 12:56:51;;;;;;;17.00;6.68;;;6.90;99.90;;;;;;5041176;28;20021;-74
2020/12/03 12:59:17;;;;;;;17.48;5.57;;;6.80;99.90;;;;;;5054840;28;20021;-74
2020/12/03 13:01:47;;;;;;;14.50;7.40;;;6.80;99.90;;;;;;5055003;28;20035;-74
2020/12/03 13:04:14;;;;;;;14.88;5.93;;;6.80;99.90;;;;;;5037137;28;20017;-74
2020/12/03 13:06:40;;;;;;;17.40;6.85;;;6.70;99.90;;;;;;5069896;28;20036;-74
2020/12/03 13:09:07;;;;;;;12.25;5.85;;;6.70;99.90;;;;;;5054297;28;20052;-74
2020/12/03 13:11:32;;;;;;;12.55;5.75;;;6.70;99.90;;;;;;5054560;28;20077;-74
2020/12/03 13:13:58;;;;;;;12.73;4.93;;;6.70;99.90;;;;;;5054511;28;20028;-74